sensor_id;sensor_type;location;lat;lon;timestamp;P1;durP1;ratioP1;P2;durP2;ratioP2
26824;SDS011;14402;48.178;11.566;2022-12-13T00:00:10;12.5;;;9.8;;
26824;SDS011;14402;48.178;11.566;2022-12-13T00:00:39;12.5;;;9.8;;
26824;SDS011;14402;48.178;11.566;2022-12-13T00:01:10;12.5;;;9.8;;
26824;SDS011;14402;48.178;11.566;2022-12-13T00:01:39;11.8;;;9.5;;
26824;SDS011;14402;48.178;11.566;2022-12-13T00:02:10;11.0;;;9.2;;
26824;SDS011;14402;48.178;11.566;2022-12-13T00:02:40;11.0;;;9.2;;
26824;SDS011;14402;48.178;11.566;2022-12-13T00:03:10;11.0;;;9.2;;
26824;SDS011;14402;48.178;11.566;2022-12-13T00:03:40;11.6;;;9.6;;
26824;SDS011;14402;48.178;11.566;2022-12-13T00:04:10;12.2;;;10.0;;
26824;SDS011;14402;48.178;11.566;2022-12-13T00:04:40;12.2;;;10.0;;
26824;SDS011;14402;48.178;11.566;2022-12-13T00:05:10;12.2;;;10.0;;
26824;SDS011;14402;48.178;11.566;2022-12-13T00:05:41;12.8;;;10.0;;
26824;SDS011;14402;48.178;11.566;2022-12-13T00:06:11;13.4;;;10.0;;
26824;SDS011;14402;48.178;11.566;2022-12-13T00:06:40;13.4;;;10.0;;
26824;SDS011;14402;48.178;11.566;2022-12-13T00:07:10;13.4;;;10.0;;
26824;SDS011;14402;48.178;11.566;2022-12-13T00:07:40;12.4;;;9.7;;
26824;SDS011;14402;48.178;11.566;2022-12-13T00:08:11;11.3;;;9.4;;
26824;SDS011;14402;48.178;11.566;2022-12-13T00:08:41;11.3;;;9.4;;
26824;SDS011;14402;48.178;11.566;2022-12-13T00:09:11;11.3;;;9.4;;
26824;SDS011;14402;48.178;11.566;2022-12-13T00:09:41;10.8;;;9.2;;
26824;SDS011;14402;48.178;11.566;2022-12-13T00:10:11;10.3;;;9.0;;
26824;SDS011;14402;48.178;11.566;2022-12-13T00:10:41;10.3;;;9.0;;
26824;SDS011;14402;48.178;11.566;2022-12-13T00:11:12;10.3;;;9.0;;
26824;SDS011;14402;48.178;11.566;2022-12-13T00:11:41;10.2;;;8.9;;
26824;SDS011;14402;48.178;11.566;2022-12-13T00:12:11;10.2;;;8.7;;
26824;SDS011;14402;48.178;11.566;2022-12-13T00:12:41;10.2;;;8.7;;
26824;SDS011;14402;48.178;11.566;2022-12-13T00:13:11;10.2;;;8.7;;
26824;SDS011;14402;48.178;11.566;2022-12-13T00:13:42;10.6;;;8.9;;
26824;SDS011;14402;48.178;11.566;2022-12-13T00:14:12;11.0;;;9.0;;
26824;SDS011;14402;48.178;11.566;2022-12-13T00:14:42;11.0;;;9.0;;
26824;SDS011;14402;48.178;11.566;2022-12-13T00:15:12;11.0;;;9.0;;
26824;SDS011;14402;48.178;11.566;2022-12-13T00:15:42;10.6;;;8.9;;
26824;SDS011;14402;48.178;11.566;2022-12-13T00:16:12;10.2;;;8.9;;
26824;SDS011;14402;48.178;11.566;2022-12-13T00:16:43;10.2;;;8.9;;
26824;SDS011;14402;48.178;11.566;2022-12-13T00:17:13;10.2;;;8.9;;
26824;SDS011;14402;48.178;11.566;2022-12-13T00:17:42;11.0;;;9.3;;
26824;SDS011;14402;48.178;11.566;2022-12-13T00:18:12;11.9;;;9.7;;
26824;SDS011;14402;48.178;11.566;2022-12-13T00:18:42;11.9;;;9.7;;
26824;SDS011;14402;48.178;11.566;2022-12-13T00:19:13;11.9;;;9.7;;
26824;SDS011;14402;48.178;11.566;2022-12-13T00:19:42;11.4;;;9.4;;
26824;SDS011;14402;48.178;11.566;2022-12-13T00:20:12;11.0;;;9.0;;
26824;SDS011;14402;48.178;11.566;2022-12-13T00:20:42;11.0;;;9.0;;
26824;SDS011;14402;48.178;11.566;2022-12-13T00:21:14;11.0;;;9.0;;
26824;SDS011;14402;48.178;11.566;2022-12-13T00:21:43;10.6;;;9.1;;
26824;SDS011;14402;48.178;11.566;2022-12-13T00:22:13;10.2;;;9.1;;
26824;SDS011;14402;48.178;11.566;2022-12-13T00:22:43;10.2;;;9.1;;
26824;SDS011;14402;48.178;11.566;2022-12-13T00:23:13;10.2;;;9.1;;
26824;SDS011;14402;48.178;11.566;2022-12-13T00:23:43;10.4;;;9.2;;
26824;SDS011;14402;48.178;11.566;2022-12-13T00:24:13;10.7;;;9.3;;
26824;SDS011;14402;48.178;11.566;2022-12-13T00:24:43;10.7;;;9.3;;
26824;SDS011;14402;48.178;11.566;2022-12-13T00:25:13;10.7;;;9.3;;
26824;SDS011;14402;48.178;11.566;2022-12-13T00:25:43;10.4;;;9.2;;
26824;SDS011;14402;48.178;11.566;2022-12-13T00:26:14;10.1;;;9.1;;
26824;SDS011;14402;48.178;11.566;2022-12-13T00:26:43;10.1;;;9.1;;
26824;SDS011;14402;48.178;11.566;2022-12-13T00:27:14;10.1;;;9.1;;
26824;SDS011;14402;48.178;11.566;2022-12-13T00:27:44;10.7;;;9.2;;
26824;SDS011;14402;48.178;11.566;2022-12-13T00:28:14;11.3;;;9.3;;
26824;SDS011;14402;48.178;11.566;2022-12-13T00:28:44;11.3;;;9.3;;
26824;SDS011;14402;48.178;11.566;2022-12-13T00:29:14;11.3;;;9.3;;
26824;SDS011;14402;48.178;11.566;2022-12-13T00:29:44;11.1;;;9.1;;
26824;SDS011;14402;48.178;11.566;2022-12-13T00:30:14;11.0;;;9.0;;
26824;SDS011;14402;48.178;11.566;2022-12-13T00:30:44;11.0;;;9.0;;
26824;SDS011;14402;48.178;11.566;2022-12-13T00:31:14;11.0;;;9.0;;
26824;SDS011;14402;48.178;11.566;2022-12-13T00:31:44;10.4;;;8.9;;
26824;SDS011;14402;48.178;11.566;2022-12-13T00:32:15;9.8;;;8.8;;
26824;SDS011;14402;48.178;11.566;2022-12-13T00:32:44;9.8;;;8.8;;
26824;SDS011;14402;48.178;11.566;2022-12-13T00:33:14;9.8;;;8.8;;
26824;SDS011;14402;48.178;11.566;2022-12-13T00:33:45;10.1;;;9.1;;
26824;SDS011;14402;48.178;11.566;2022-12-13T00:34:15;10.4;;;9.3;;
26824;SDS011;14402;48.178;11.566;2022-12-13T00:34:45;10.4;;;9.3;;
26824;SDS011;14402;48.178;11.566;2022-12-13T00:35:15;10.4;;;9.3;;
26824;SDS011;14402;48.178;11.566;2022-12-13T00:35:45;10.2;;;9.1;;
26824;SDS011;14402;48.178;11.566;2022-12-13T00:36:15;10.1;;;9.0;;
26824;SDS011;14402;48.178;11.566;2022-12-13T00:36:45;10.1;;;9.0;;
26824;SDS011;14402;48.178;11.566;2022-12-13T00:37:15;10.1;;;9.0;;
26824;SDS011;14402;48.178;11.566;2022-12-13T00:37:45;10.2;;;8.9;;
26824;SDS011;14402;48.178;11.566;2022-12-13T00:38:15;10.4;;;8.9;;
26824;SDS011;14402;48.178;11.566;2022-12-13T00:38:45;10.4;;;8.9;;
26824;SDS011;14402;48.178;11.566;2022-12-13T00:39:16;10.4;;;8.9;;
26824;SDS011;14402;48.178;11.566;2022-12-13T00:39:45;10.9;;;9.3;;
26824;SDS011;14402;48.178;11.566;2022-12-13T00:40:16;11.3;;;9.7;;
26824;SDS011;14402;48.178;11.566;2022-12-13T00:40:46;11.3;;;9.7;;
26824;SDS011;14402;48.178;11.566;2022-12-13T00:41:16;11.3;;;9.7;;
26824;SDS011;14402;48.178;11.566;2022-12-13T00:41:46;11.4;;;9.6;;
26824;SDS011;14402;48.178;11.566;2022-12-13T00:42:16;11.5;;;9.6;;
26824;SDS011;14402;48.178;11.566;2022-12-13T00:42:46;11.5;;;9.6;;
26824;SDS011;14402;48.178;11.566;2022-12-13T00:43:16;11.5;;;9.6;;
26824;SDS011;14402;48.178;11.566;2022-12-13T00:43:46;11.9;;;9.5;;
26824;SDS011;14402;48.178;11.566;2022-12-13T00:44:17;12.2;;;9.4;;
26824;SDS011;14402;48.178;11.566;2022-12-13T00:44:46;12.2;;;9.4;;
26824;SDS011;14402;48.178;11.566;2022-12-13T00:45:16;12.2;;;9.4;;
26824;SDS011;14402;48.178;11.566;2022-12-13T00:45:46;12.1;;;9.5;;
26824;SDS011;14402;48.178;11.566;2022-12-13T00:46:18;12.0;;;9.6;;
26824;SDS011;14402;48.178;11.566;2022-12-13T00:46:47;12.0;;;9.6;;
26824;SDS011;14402;48.178;11.566;2022-12-13T00:47:17;12.0;;;9.6;;
26824;SDS011;14402;48.178;11.566;2022-12-13T00:47:47;11.3;;;9.6;;
26824;SDS011;14402;48.178;11.566;2022-12-13T00:48:17;10.6;;;9.5;;
26824;SDS011;14402;48.178;11.566;2022-12-13T00:48:48;10.6;;;9.5;;
26824;SDS011;14402;48.178;11.566;2022-12-13T00:49:17;10.6;;;9.5;;
26824;SDS011;14402;48.178;11.566;2022-12-13T00:49:47;10.9;;;9.1;;
26824;SDS011;14402;48.178;11.566;2022-12-13T00:50:17;11.1;;;8.8;;
26824;SDS011;14402;48.178;11.566;2022-12-13T00:50:47;11.1;;;8.8;;
26824;SDS011;14402;48.178;11.566;2022-12-13T00:51:18;11.1;;;8.8;;
26824;SDS011;14402;48.178;11.566;2022-12-13T00:51:48;10.9;;;9.0;;
26824;SDS011;14402;48.178;11.566;2022-12-13T00:52:18;10.7;;;9.1;;
26824;SDS011;14402;48.178;11.566;2022-12-13T00:52:48;10.7;;;9.1;;
26824;SDS011;14402;48.178;11.566;2022-12-13T00:53:18;10.7;;;9.1;;
26824;SDS011;14402;48.178;11.566;2022-12-13T00:53:48;11.3;;;9.4;;
26824;SDS011;14402;48.178;11.566;2022-12-13T00:54:18;11.9;;;9.6;;
26824;SDS011;14402;48.178;11.566;2022-12-13T00:54:48;11.9;;;9.6;;
26824;SDS011;14402;48.178;11.566;2022-12-13T00:55:18;11.9;;;9.6;;
26824;SDS011;14402;48.178;11.566;2022-12-13T00:55:48;12.5;;;9.8;;
26824;SDS011;14402;48.178;11.566;2022-12-13T00:56:19;13.2;;;9.9;;
26824;SDS011;14402;48.178;11.566;2022-12-13T00:56:48;13.2;;;9.9;;
26824;SDS011;14402;48.178;11.566;2022-12-13T00:57:18;13.2;;;9.9;;
26824;SDS011;14402;48.178;11.566;2022-12-13T00:57:48;11.5;;;9.4;;
26824;SDS011;14402;48.178;11.566;2022-12-13T00:58:19;9.8;;;8.8;;
26824;SDS011;14402;48.178;11.566;2022-12-13T00:58:49;9.8;;;8.8;;
26824;SDS011;14402;48.178;11.566;2022-12-13T00:59:19;9.8;;;8.8;;
26824;SDS011;14402;48.178;11.566;2022-12-13T00:59:49;10.4;;;8.8;;
26824;SDS011;14402;48.178;11.566;2022-12-13T01:00:19;10.9;;;8.7;;
26824;SDS011;14402;48.178;11.566;2022-12-13T01:00:49;10.9;;;8.7;;
26824;SDS011;14402;48.178;11.566;2022-12-13T01:01:20;10.9;;;8.7;;
26824;SDS011;14402;48.178;11.566;2022-12-13T01:01:49;12.5;;;9.1;;
26824;SDS011;14402;48.178;11.566;2022-12-13T01:02:19;14.1;;;9.5;;
26824;SDS011;14402;48.178;11.566;2022-12-13T01:02:49;14.1;;;9.5;;
26824;SDS011;14402;48.178;11.566;2022-12-13T01:03:19;14.1;;;9.5;;
26824;SDS011;14402;48.178;11.566;2022-12-13T01:03:49;12.4;;;9.6;;
26824;SDS011;14402;48.178;11.566;2022-12-13T01:04:19;10.7;;;9.6;;
26824;SDS011;14402;48.178;11.566;2022-12-13T01:04:50;10.7;;;9.6;;
26824;SDS011;14402;48.178;11.566;2022-12-13T01:05:20;10.7;;;9.6;;
26824;SDS011;14402;48.178;11.566;2022-12-13T01:05:50;10.2;;;9.2;;
26824;SDS011;14402;48.178;11.566;2022-12-13T01:06:21;9.8;;;8.8;;
26824;SDS011;14402;48.178;11.566;2022-12-13T01:06:50;9.8;;;8.8;;
26824;SDS011;14402;48.178;11.566;2022-12-13T01:07:20;9.8;;;8.8;;
26824;SDS011;14402;48.178;11.566;2022-12-13T01:07:50;10.3;;;8.9;;
26824;SDS011;14402;48.178;11.566;2022-12-13T01:08:20;10.8;;;8.9;;
26824;SDS011;14402;48.178;11.566;2022-12-13T01:08:50;10.8;;;8.9;;
26824;SDS011;14402;48.178;11.566;2022-12-13T01:09:21;10.9;;;9.4;;
26824;SDS011;14402;48.178;11.566;2022-12-13T01:09:50;10.9;;;9.8;;
26824;SDS011;14402;48.178;11.566;2022-12-13T01:10:20;10.9;;;9.8;;
26824;SDS011;14402;48.178;11.566;2022-12-13T01:10:51;10.9;;;9.8;;
26824;SDS011;14402;48.178;11.566;2022-12-13T01:11:21;10.2;;;9.2;;
26824;SDS011;14402;48.178;11.566;2022-12-13T01:11:54;9.5;;;8.6;;
26824;SDS011;14402;48.178;11.566;2022-12-13T01:12:21;9.5;;;8.6;;
26824;SDS011;14402;48.178;11.566;2022-12-13T01:12:51;9.5;;;8.6;;
26824;SDS011;14402;48.178;11.566;2022-12-13T01:13:21;10.1;;;9.1;;
26824;SDS011;14402;48.178;11.566;2022-12-13T01:13:51;10.8;;;9.7;;
26824;SDS011;14402;48.178;11.566;2022-12-13T01:14:21;10.8;;;9.7;;
26824;SDS011;14402;48.178;11.566;2022-12-13T01:14:51;10.8;;;9.7;;
26824;SDS011;14402;48.178;11.566;2022-12-13T01:15:21;11.0;;;9.5;;
26824;SDS011;14402;48.178;11.566;2022-12-13T01:15:51;11.1;;;9.3;;
26824;SDS011;14402;48.178;11.566;2022-12-13T01:16:21;11.1;;;9.3;;
26824;SDS011;14402;48.178;11.566;2022-12-13T01:16:52;11.1;;;9.3;;
26824;SDS011;14402;48.178;11.566;2022-12-13T01:17:23;10.7;;;9.2;;
26824;SDS011;14402;48.178;11.566;2022-12-13T01:17:52;10.3;;;9.2;;
26824;SDS011;14402;48.178;11.566;2022-12-13T01:18:22;10.3;;;9.2;;
26824;SDS011;14402;48.178;11.566;2022-12-13T01:18:52;10.3;;;9.2;;
26824;SDS011;14402;48.178;11.566;2022-12-13T01:19:22;10.1;;;9.0;;
26824;SDS011;14402;48.178;11.566;2022-12-13T01:19:52;9.9;;;8.9;;
26824;SDS011;14402;48.178;11.566;2022-12-13T01:20:22;9.9;;;8.9;;
26824;SDS011;14402;48.178;11.566;2022-12-13T01:20:56;9.9;;;8.9;;
26824;SDS011;14402;48.178;11.566;2022-12-13T01:21:22;10.2;;;9.2;;
26824;SDS011;14402;48.178;11.566;2022-12-13T01:21:53;10.6;;;9.5;;
26824;SDS011;14402;48.178;11.566;2022-12-13T01:22:22;10.6;;;9.5;;
26824;SDS011;14402;48.178;11.566;2022-12-13T01:22:52;10.6;;;9.5;;
26824;SDS011;14402;48.178;11.566;2022-12-13T01:23:23;10.5;;;9.4;;
26824;SDS011;14402;48.178;11.566;2022-12-13T01:23:53;10.3;;;9.2;;
26824;SDS011;14402;48.178;11.566;2022-12-13T01:24:23;10.3;;;9.2;;
26824;SDS011;14402;48.178;11.566;2022-12-13T01:24:53;10.3;;;9.2;;
26824;SDS011;14402;48.178;11.566;2022-12-13T01:25:23;10.4;;;9.1;;
26824;SDS011;14402;48.178;11.566;2022-12-13T01:25:53;10.4;;;9.0;;
26824;SDS011;14402;48.178;11.566;2022-12-13T01:26:23;10.4;;;9.0;;
26824;SDS011;14402;48.178;11.566;2022-12-13T01:26:53;10.4;;;9.0;;
26824;SDS011;14402;48.178;11.566;2022-12-13T01:27:23;10.5;;;9.0;;
26824;SDS011;14402;48.178;11.566;2022-12-13T01:27:53;10.6;;;9.0;;
26824;SDS011;14402;48.178;11.566;2022-12-13T01:28:23;10.6;;;9.0;;
26824;SDS011;14402;48.178;11.566;2022-12-13T01:28:53;10.6;;;9.0;;
26824;SDS011;14402;48.178;11.566;2022-12-13T01:29:24;10.6;;;9.1;;
26824;SDS011;14402;48.178;11.566;2022-12-13T01:29:54;10.6;;;9.2;;
26824;SDS011;14402;48.178;11.566;2022-12-13T01:30:24;10.6;;;9.2;;
26824;SDS011;14402;48.178;11.566;2022-12-13T01:30:54;10.6;;;9.2;;
26824;SDS011;14402;48.178;11.566;2022-12-13T01:31:24;10.5;;;9.1;;
26824;SDS011;14402;48.178;11.566;2022-12-13T01:31:54;10.3;;;9.1;;
26824;SDS011;14402;48.178;11.566;2022-12-13T01:32:24;10.3;;;9.1;;
26824;SDS011;14402;48.178;11.566;2022-12-13T01:32:54;10.3;;;9.1;;
26824;SDS011;14402;48.178;11.566;2022-12-13T01:33:25;10.1;;;9.0;;
26824;SDS011;14402;48.178;11.566;2022-12-13T01:33:54;9.9;;;8.9;;
26824;SDS011;14402;48.178;11.566;2022-12-13T01:34:24;9.9;;;8.9;;
26824;SDS011;14402;48.178;11.566;2022-12-13T01:34:54;9.9;;;8.9;;
26824;SDS011;14402;48.178;11.566;2022-12-13T01:35:24;9.8;;;8.8;;
26824;SDS011;14402;48.178;11.566;2022-12-13T01:35:55;9.7;;;8.7;;
26824;SDS011;14402;48.178;11.566;2022-12-13T01:36:25;9.7;;;8.7;;
26824;SDS011;14402;48.178;11.566;2022-12-13T01:36:55;9.7;;;8.7;;
26824;SDS011;14402;48.178;11.566;2022-12-13T01:37:25;10.0;;;9.0;;
26824;SDS011;14402;48.178;11.566;2022-12-13T01:37:55;10.4;;;9.3;;
26824;SDS011;14402;48.178;11.566;2022-12-13T01:38:25;10.4;;;9.3;;
26824;SDS011;14402;48.178;11.566;2022-12-13T01:38:55;10.4;;;9.3;;
26824;SDS011;14402;48.178;11.566;2022-12-13T01:39:26;10.4;;;9.3;;
26824;SDS011;14402;48.178;11.566;2022-12-13T01:39:55;10.4;;;9.3;;
26824;SDS011;14402;48.178;11.566;2022-12-13T01:40:25;10.4;;;9.3;;
26824;SDS011;14402;48.178;11.566;2022-12-13T01:40:55;10.4;;;9.3;;
26824;SDS011;14402;48.178;11.566;2022-12-13T01:41:26;10.1;;;9.1;;
26824;SDS011;14402;48.178;11.566;2022-12-13T01:41:55;9.9;;;8.9;;
26824;SDS011;14402;48.178;11.566;2022-12-13T01:42:26;9.9;;;8.9;;
26824;SDS011;14402;48.178;11.566;2022-12-13T01:42:56;9.9;;;8.9;;
26824;SDS011;14402;48.178;11.566;2022-12-13T01:43:28;10.2;;;9.2;;
26824;SDS011;14402;48.178;11.566;2022-12-13T01:43:57;10.6;;;9.5;;
26824;SDS011;14402;48.178;11.566;2022-12-13T01:45:32;10.6;;;9.4;;
26824;SDS011;14402;48.178;11.566;2022-12-13T01:45:32;10.6;;;9.5;;
26824;SDS011;14402;48.178;11.566;2022-12-13T01:45:32;10.6;;;9.5;;
26824;SDS011;14402;48.178;11.566;2022-12-13T01:45:56;10.5;;;9.4;;
26824;SDS011;14402;48.178;11.566;2022-12-13T01:46:26;10.5;;;9.4;;
26824;SDS011;14402;48.178;11.566;2022-12-13T01:46:56;10.5;;;9.4;;
26824;SDS011;14402;48.178;11.566;2022-12-13T01:47:27;10.6;;;9.5;;
26824;SDS011;14402;48.178;11.566;2022-12-13T01:47:57;10.8;;;9.7;;
26824;SDS011;14402;48.178;11.566;2022-12-13T01:48:27;10.8;;;9.7;;
26824;SDS011;14402;48.178;11.566;2022-12-13T01:48:58;10.8;;;9.7;;
26824;SDS011;14402;48.178;11.566;2022-12-13T01:49:27;11.6;;;9.6;;
26824;SDS011;14402;48.178;11.566;2022-12-13T01:49:57;12.4;;;9.6;;
26824;SDS011;14402;48.178;11.566;2022-12-13T01:50:28;12.4;;;9.6;;
26824;SDS011;14402;48.178;11.566;2022-12-13T01:50:58;12.4;;;9.6;;
26824;SDS011;14402;48.178;11.566;2022-12-13T01:51:28;11.4;;;9.4;;
26824;SDS011;14402;48.178;11.566;2022-12-13T01:51:58;10.3;;;9.2;;
26824;SDS011;14402;48.178;11.566;2022-12-13T01:52:27;10.3;;;9.2;;
26824;SDS011;14402;48.178;11.566;2022-12-13T01:52:57;10.3;;;9.2;;
26824;SDS011;14402;48.178;11.566;2022-12-13T01:53:28;10.8;;;9.2;;
26824;SDS011;14402;48.178;11.566;2022-12-13T01:53:58;11.3;;;9.2;;
26824;SDS011;14402;48.178;11.566;2022-12-13T01:54:29;11.3;;;9.2;;
26824;SDS011;14402;48.178;11.566;2022-12-13T01:54:58;11.3;;;9.2;;
26824;SDS011;14402;48.178;11.566;2022-12-13T01:55:29;10.8;;;9.2;;
26824;SDS011;14402;48.178;11.566;2022-12-13T01:55:59;10.3;;;9.2;;
26824;SDS011;14402;48.178;11.566;2022-12-13T01:56:29;10.3;;;9.2;;
26824;SDS011;14402;48.178;11.566;2022-12-13T01:56:58;10.3;;;9.2;;
26824;SDS011;14402;48.178;11.566;2022-12-13T01:57:28;10.4;;;9.3;;
26824;SDS011;14402;48.178;11.566;2022-12-13T01:57:58;10.4;;;9.4;;
26824;SDS011;14402;48.178;11.566;2022-12-13T01:58:28;10.4;;;9.4;;
26824;SDS011;14402;48.178;11.566;2022-12-13T01:58:58;10.4;;;9.4;;
26824;SDS011;14402;48.178;11.566;2022-12-13T01:59:29;11.0;;;9.2;;
26824;SDS011;14402;48.178;11.566;2022-12-13T01:59:58;11.7;;;9.1;;
26824;SDS011;14402;48.178;11.566;2022-12-13T02:00:28;11.7;;;9.1;;
26824;SDS011;14402;48.178;11.566;2022-12-13T02:00:59;11.7;;;9.1;;
26824;SDS011;14402;48.178;11.566;2022-12-13T02:01:29;11.4;;;9.3;;
26824;SDS011;14402;48.178;11.566;2022-12-13T02:01:59;11.0;;;9.5;;
26824;SDS011;14402;48.178;11.566;2022-12-13T02:02:29;11.0;;;9.5;;
26824;SDS011;14402;48.178;11.566;2022-12-13T02:02:59;11.0;;;9.5;;
26824;SDS011;14402;48.178;11.566;2022-12-13T02:03:29;10.5;;;9.2;;
26824;SDS011;14402;48.178;11.566;2022-12-13T02:03:59;10.0;;;9.0;;
26824;SDS011;14402;48.178;11.566;2022-12-13T02:04:30;10.0;;;9.0;;
26824;SDS011;14402;48.178;11.566;2022-12-13T02:05:02;10.0;;;9.0;;
26824;SDS011;14402;48.178;11.566;2022-12-13T02:05:30;10.6;;;9.1;;
26824;SDS011;14402;48.178;11.566;2022-12-13T02:06:00;11.1;;;9.2;;
26824;SDS011;14402;48.178;11.566;2022-12-13T02:06:31;11.1;;;9.2;;
26824;SDS011;14402;48.178;11.566;2022-12-13T02:07:00;11.1;;;9.2;;
26824;SDS011;14402;48.178;11.566;2022-12-13T02:07:30;10.9;;;9.1;;
26824;SDS011;14402;48.178;11.566;2022-12-13T02:08:00;10.7;;;9.0;;
26824;SDS011;14402;48.178;11.566;2022-12-13T02:08:30;10.7;;;9.0;;
26824;SDS011;14402;48.178;11.566;2022-12-13T02:09:00;10.7;;;9.0;;
26824;SDS011;14402;48.178;11.566;2022-12-13T02:09:30;10.5;;;9.1;;
26824;SDS011;14402;48.178;11.566;2022-12-13T02:10:00;10.4;;;9.1;;
26824;SDS011;14402;48.178;11.566;2022-12-13T02:10:30;10.4;;;9.1;;
26824;SDS011;14402;48.178;11.566;2022-12-13T02:11:00;10.4;;;9.1;;
26824;SDS011;14402;48.178;11.566;2022-12-13T02:11:30;10.4;;;9.1;;
26824;SDS011;14402;48.178;11.566;2022-12-13T02:12:00;10.3;;;9.2;;
26824;SDS011;14402;48.178;11.566;2022-12-13T02:12:31;10.3;;;9.2;;
26824;SDS011;14402;48.178;11.566;2022-12-13T02:13:00;10.3;;;9.2;;
26824;SDS011;14402;48.178;11.566;2022-12-13T02:13:30;10.1;;;9.1;;
26824;SDS011;14402;48.178;11.566;2022-12-13T02:14:01;10.0;;;9.0;;
26824;SDS011;14402;48.178;11.566;2022-12-13T02:14:31;10.0;;;9.0;;
26824;SDS011;14402;48.178;11.566;2022-12-13T02:15:01;10.0;;;9.0;;
26824;SDS011;14402;48.178;11.566;2022-12-13T02:15:33;10.2;;;9.2;;
26824;SDS011;14402;48.178;11.566;2022-12-13T02:16:03;10.5;;;9.4;;
26824;SDS011;14402;48.178;11.566;2022-12-13T02:16:35;10.5;;;9.4;;
26824;SDS011;14402;48.178;11.566;2022-12-13T02:17:03;10.5;;;9.4;;
26824;SDS011;14402;48.178;11.566;2022-12-13T02:17:36;10.6;;;9.1;;
26824;SDS011;14402;48.178;11.566;2022-12-13T02:18:06;10.6;;;8.9;;
26824;SDS011;14402;48.178;11.566;2022-12-13T02:18:36;10.6;;;8.9;;
26824;SDS011;14402;48.178;11.566;2022-12-13T02:19:07;10.6;;;8.9;;
26824;SDS011;14402;48.178;11.566;2022-12-13T02:19:39;10.6;;;8.9;;
26824;SDS011;14402;48.178;11.566;2022-12-13T02:20:39;10.5;;;9.0;;
26824;SDS011;14402;48.178;11.566;2022-12-13T02:20:43;10.5;;;9.0;;
26824;SDS011;14402;48.178;11.566;2022-12-13T02:21:07;10.5;;;9.0;;
26824;SDS011;14402;48.178;11.566;2022-12-13T02:21:32;10.6;;;9.1;;
26824;SDS011;14402;48.178;11.566;2022-12-13T02:22:04;10.7;;;9.3;;
26824;SDS011;14402;48.178;11.566;2022-12-13T02:22:39;10.7;;;9.3;;
26824;SDS011;14402;48.178;11.566;2022-12-13T02:23:07;10.7;;;9.3;;
26824;SDS011;14402;48.178;11.566;2022-12-13T02:23:37;10.3;;;9.1;;
26824;SDS011;14402;48.178;11.566;2022-12-13T02:24:09;9.9;;;8.9;;
26824;SDS011;14402;48.178;11.566;2022-12-13T02:24:37;9.9;;;8.9;;
26824;SDS011;14402;48.178;11.566;2022-12-13T02:25:07;9.9;;;8.9;;
26824;SDS011;14402;48.178;11.566;2022-12-13T02:25:39;10.0;;;9.0;;
26824;SDS011;14402;48.178;11.566;2022-12-13T02:26:11;10.2;;;9.1;;
26824;SDS011;14402;48.178;11.566;2022-12-13T02:26:40;10.2;;;9.1;;
26824;SDS011;14402;48.178;11.566;2022-12-13T02:27:06;10.2;;;9.1;;
26824;SDS011;14402;48.178;11.566;2022-12-13T02:27:37;10.0;;;9.0;;
26824;SDS011;14402;48.178;11.566;2022-12-13T02:28:05;9.9;;;8.9;;
26824;SDS011;14402;48.178;11.566;2022-12-13T02:28:38;9.9;;;8.9;;
26824;SDS011;14402;48.178;11.566;2022-12-13T02:29:08;9.9;;;8.9;;
26824;SDS011;14402;48.178;11.566;2022-12-13T02:30:15;9.9;;;8.9;;
26824;SDS011;14402;48.178;11.566;2022-12-13T02:30:16;9.9;;;8.9;;
26824;SDS011;14402;48.178;11.566;2022-12-13T02:30:34;9.9;;;8.9;;
26824;SDS011;14402;48.178;11.566;2022-12-13T02:31:05;9.9;;;8.9;;
26824;SDS011;14402;48.178;11.566;2022-12-13T02:31:35;10.1;;;9.1;;
26824;SDS011;14402;48.178;11.566;2022-12-13T02:32:05;10.4;;;9.3;;
26824;SDS011;14402;48.178;11.566;2022-12-13T02:32:36;10.4;;;9.3;;
26824;SDS011;14402;48.178;11.566;2022-12-13T02:33:10;10.4;;;9.3;;
26824;SDS011;14402;48.178;11.566;2022-12-13T02:33:37;10.1;;;9.1;;
26824;SDS011;14402;48.178;11.566;2022-12-13T02:34:04;9.9;;;8.9;;
26824;SDS011;14402;48.178;11.566;2022-12-13T02:34:35;9.9;;;8.9;;
26824;SDS011;14402;48.178;11.566;2022-12-13T02:35:05;9.9;;;8.9;;
26824;SDS011;14402;48.178;11.566;2022-12-13T02:35:36;10.5;;;9.1;;
26824;SDS011;14402;48.178;11.566;2022-12-13T02:36:06;11.1;;;9.4;;
26824;SDS011;14402;48.178;11.566;2022-12-13T02:36:36;11.1;;;9.4;;
26824;SDS011;14402;48.178;11.566;2022-12-13T02:37:05;11.1;;;9.4;;
26824;SDS011;14402;48.178;11.566;2022-12-13T02:37:37;10.4;;;9.1;;
26824;SDS011;14402;48.178;11.566;2022-12-13T02:38:07;9.7;;;8.8;;
26824;SDS011;14402;48.178;11.566;2022-12-13T02:38:36;9.7;;;8.8;;
26824;SDS011;14402;48.178;11.566;2022-12-13T02:39:06;9.7;;;8.8;;
26824;SDS011;14402;48.178;11.566;2022-12-13T02:39:36;10.3;;;9.1;;
26824;SDS011;14402;48.178;11.566;2022-12-13T02:40:06;10.9;;;9.4;;
26824;SDS011;14402;48.178;11.566;2022-12-13T02:40:36;10.9;;;9.4;;
26824;SDS011;14402;48.178;11.566;2022-12-13T02:41:06;10.9;;;9.4;;
26824;SDS011;14402;48.178;11.566;2022-12-13T02:41:36;10.9;;;9.5;;
26824;SDS011;14402;48.178;11.566;2022-12-13T02:42:06;10.8;;;9.7;;
26824;SDS011;14402;48.178;11.566;2022-12-13T02:42:36;10.8;;;9.7;;
26824;SDS011;14402;48.178;11.566;2022-12-13T02:43:06;10.8;;;9.7;;
26824;SDS011;14402;48.178;11.566;2022-12-13T02:43:37;10.4;;;9.3;;
26824;SDS011;14402;48.178;11.566;2022-12-13T02:44:06;9.9;;;8.9;;
26824;SDS011;14402;48.178;11.566;2022-12-13T02:44:36;9.9;;;8.9;;
26824;SDS011;14402;48.178;11.566;2022-12-13T02:45:06;9.9;;;8.9;;
26824;SDS011;14402;48.178;11.566;2022-12-13T02:45:36;10.1;;;9.1;;
26824;SDS011;14402;48.178;11.566;2022-12-13T02:46:06;10.4;;;9.3;;
26824;SDS011;14402;48.178;11.566;2022-12-13T02:46:37;10.4;;;9.3;;
26824;SDS011;14402;48.178;11.566;2022-12-13T02:47:07;10.4;;;9.3;;
26824;SDS011;14402;48.178;11.566;2022-12-13T02:47:37;10.2;;;9.2;;
26824;SDS011;14402;48.178;11.566;2022-12-13T02:48:07;10.1;;;9.1;;
26824;SDS011;14402;48.178;11.566;2022-12-13T02:48:37;10.1;;;9.1;;
26824;SDS011;14402;48.178;11.566;2022-12-13T02:49:06;10.1;;;9.1;;
26824;SDS011;14402;48.178;11.566;2022-12-13T02:49:37;10.0;;;8.9;;
26824;SDS011;14402;48.178;11.566;2022-12-13T02:50:06;9.9;;;8.7;;
26824;SDS011;14402;48.178;11.566;2022-12-13T02:50:37;9.9;;;8.7;;
26824;SDS011;14402;48.178;11.566;2022-12-13T02:51:08;9.9;;;8.7;;
26824;SDS011;14402;48.178;11.566;2022-12-13T02:51:37;10.0;;;8.9;;
26824;SDS011;14402;48.178;11.566;2022-12-13T02:52:08;10.1;;;9.1;;
26824;SDS011;14402;48.178;11.566;2022-12-13T02:52:37;10.1;;;9.1;;
26824;SDS011;14402;48.178;11.566;2022-12-13T02:53:07;10.1;;;9.1;;
26824;SDS011;14402;48.178;11.566;2022-12-13T02:53:37;10.1;;;9.1;;
26824;SDS011;14402;48.178;11.566;2022-12-13T02:54:07;10.2;;;9.1;;
26824;SDS011;14402;48.178;11.566;2022-12-13T02:54:37;10.2;;;9.1;;
26824;SDS011;14402;48.178;11.566;2022-12-13T02:55:10;10.2;;;9.1;;
26824;SDS011;14402;48.178;11.566;2022-12-13T02:55:38;10.2;;;9.2;;
26824;SDS011;14402;48.178;11.566;2022-12-13T02:56:07;10.3;;;9.3;;
26824;SDS011;14402;48.178;11.566;2022-12-13T02:56:37;10.3;;;9.3;;
26824;SDS011;14402;48.178;11.566;2022-12-13T02:57:25;10.3;;;9.3;;
26824;SDS011;14402;48.178;11.566;2022-12-13T02:57:38;10.1;;;9.1;;
26824;SDS011;14402;48.178;11.566;2022-12-13T02:58:10;10.0;;;9.0;;
26824;SDS011;14402;48.178;11.566;2022-12-13T02:58:39;10.0;;;9.0;;
26824;SDS011;14402;48.178;11.566;2022-12-13T02:59:09;10.0;;;9.0;;
26824;SDS011;14402;48.178;11.566;2022-12-13T02:59:38;10.1;;;9.1;;
26824;SDS011;14402;48.178;11.566;2022-12-13T03:00:09;10.3;;;9.2;;
26824;SDS011;14402;48.178;11.566;2022-12-13T03:00:41;10.3;;;9.2;;
26824;SDS011;14402;48.178;11.566;2022-12-13T03:01:13;10.3;;;9.2;;